05 Ağustos 2010, Perşembe 14:08:25

YOLCU UÇAKLARINA BULUT ENGELİ!

İstanbul hava sahasında yer yer etkili olan elektrik yüklü bulutlar nedeniyle Atatürk Havalimanı'na iniş yapamayan 3 uçak, başka havalimanlarına yönlendirildi.
  • Basım yanlışı mı yoksa ??? CB içindeki şimşeğin çarptığında neden olacağı sıcaklığın (Celsius ısı değil sıcaklık birimidir. Isı KCal veya diğer bir birimle ölçülür; depremin şiddeti ile büyüklüğü gibi) tahminisi mi bu ? Google bana yardımcı olamadı da belki yazarımız olur ? Saygılar
  • kule tamam lska 071198u 890009 LP 33223VN -tlxh SKG
  • LTBA 051050Z 09008KT 040V160 7000 -TSRA FEW020CB BKN025 30/22 Q1006 BECMG TL1200 NSW

Meteoroloji bugün sağanak yağış uyarısı yaparken, İstanbul hava sahasında etkili olan elektrik yüklü bulutlar hava trafiğini de etkiledi. Türk Hava Yolları'nın (THY) Ankara-İstanbul ve Atina-İstanbul seferlerini yapan yolcu uçakları, 'CB' (Cumulonimbus) olarak bilinen elektrik yüklü bulutlar nedeniyle Sabiha Gökçen Havalimanı'na yönlendirildi. Bir kargo uçağı ise Çorlu Havalimanı'na iniş yaptı.

Cumulonimbus nedir?

Cumulonimbus, dağ ya da çok büyük kuleler biçiminde, düşey doğrultuda büyük yer kaplayan, ağır ve yoğun bulut çeşididir. Üst bölümünün bir kısmı genellikle düzgün, ipliksi ya da çizgilidir ve hemen her zaman yassıdır. Bu bölüm, örs ya da çok büyük bir sorguç biçimi alana kadar yayılır. Çoğu kez koyu renkte olan bulutun zemininin altında, sık sık onunla birleşmiş ya da birleşmemiş durumda parçalı bulutlar vardır. Burada çoğu kez yağış olur; bu yağış kimi zaman yere ulaşamadan buharlaşan türden olabilir.Bu bulutlara dış dünyayla bağlantısız kasırgalar denilebilir.Uzaktan bakıltığında sadece bir şekilli bulut gibi gözükür ama içinde 30,000 °C ısılı ve yüzbinlerce wattlık elektrik enerjili şimşeklerle saatte 260 km'yi bulan rüzgarlar vardır.Şu anda hiçbir cumulonimbus bulutun içi görüntülenmemiştir.Sadece sağ çıkan çok nadir görgü tanıkları ve radarlar sayesinde bilgi sahibi olunmuştur.

 

YOLCU UÇAKLARINA BULUT ENGELİ!

Facebook Yorum

Yorumlar

Misafir ~ 6 yıl önce
Basım yanlışı mı yoksa ??? CB içindeki şimşeğin çarptığında neden olacağı sıcaklığın (Celsius ısı değil sıcaklık birimidir. Isı KCal veya diğer bir birimle ölçülür; depremin şiddeti ile büyüklüğü gibi) tahminisi mi bu ? Google bana yardımcı olamadı da belki yazarımız olur ? Saygılar

Yanıtla

Kalan karakter 1000
Misafir ~ 6 yıl önce
kule tamam lska 071198u 890009 LP 33223VN -tlxh SKG

Yanıtla

Kalan karakter 1000
Misafir ~ 6 yıl önce
LTBA 051050Z 09008KT 040V160 7000 -TSRA FEW020CB BKN025 30/22 Q1006 BECMG TL1200 NSW

Yanıtla

Kalan karakter 1000

Yorum Gönder

Kalan karakter 1000